Time;durP1;ratioP1;P1;durP2;ratioP2;P2;SDS_P1;SDS_P2;PMS_P1;PMS_P2;Temp;Humidity;BMP_temperature;BMP_pressure;BME280_temperature;BME280_humidity;BME280_pressure;Samples;Min_cycle;Max_cycle;Signal;HPM_P1;HPM_P2
2024/05/04 00:00:47;;;;;;;9.93;4.73;;;;;;;6.43;100.00;97514.00;5543893;25;20219;-67
2024/05/04 00:03:12;;;;;;;7.90;3.83;;;;;;;6.45;100.00;97514.78;5543915;25;20217;-67
2024/05/04 00:05:38;;;;;;;8.87;4.77;;;;;;;6.35;100.00;97510.78;5543698;25;20217;-67
2024/05/04 00:08:04;;;;;;;7.73;4.13;;;;;;;6.18;100.00;97524.06;5545508;25;20255;-66
2024/05/04 00:10:30;;;;;;;8.40;4.20;;;;;;;6.16;100.00;97525.84;5543839;25;20212;-66
2024/05/04 00:12:55;;;;;;;7.90;4.27;;;;;;;6.25;100.00;97522.19;5543657;25;20299;-66
2024/05/04 00:15:20;;;;;;;8.57;4.30;;;;;;;6.23;100.00;97506.75;5545505;25;20674;-66
2024/05/04 00:19:53;;;;;;;8.80;4.20;;;;;;;6.24;100.00;97497.28;5583071;25;20639;-66
2024/05/04 00:22:19;;;;;;;7.97;4.33;;;;;;;6.13;100.00;97495.84;5544371;25;20231;-66
2024/05/04 00:24:44;;;;;;;7.47;3.90;;;;;;;6.13;100.00;97500.13;5544133;25;20227;-67
2024/05/04 00:27:10;;;;;;;8.20;3.90;;;;;;;6.06;100.00;97502.03;5544151;25;20694;-67
2024/05/04 00:29:35;;;;;;;8.50;4.80;;;;;;;5.86;100.00;97507.63;5545880;25;20268;-67
2024/05/04 00:32:01;;;;;;;8.73;4.43;;;;;;;5.80;100.00;97514.63;5545793;25;20213;-67
2024/05/04 00:34:26;;;;;;;8.60;4.00;;;;;;;5.67;100.00;97508.91;5545877;25;20252;-67
2024/05/04 00:36:53;;;;;;;9.00;4.30;;;;;;;5.68;100.00;97506.31;5513200;25;20223;-67
2024/05/04 00:39:18;;;;;;;8.57;4.18;;;;;;;5.71;100.00;97503.66;5545796;25;20215;-67
2024/05/04 00:43:51;;;;;;;9.02;3.90;;;;;;;5.58;100.00;97503.09;5583255;25;20633;-67
2024/05/04 00:46:17;;;;;;;7.73;4.50;;;;;;;5.54;100.00;97500.63;5545709;25;20224;-67
2024/05/04 00:48:46;;;;;;;9.57;3.87;;;;;;;5.65;100.00;97503.78;5545685;25;20231;-67
2024/05/04 00:51:14;;;;;;;8.18;3.80;;;;;;;5.62;100.00;97508.16;5545713;25;20482;-66
2024/05/04 00:53:40;;;;;;;8.00;4.35;;;;;;;5.58;100.00;97490.22;5543784;25;20224;-67
2024/05/04 00:56:08;;;;;;;8.35;4.20;;;;;;;5.52;100.00;97508.38;5545608;25;20331;-67
2024/05/04 00:58:35;;;;;;;7.35;3.88;;;;;;;5.46;100.00;97502.53;5543776;25;20581;-67
2024/05/04 01:01:02;;;;;;;8.07;3.80;;;;;;;5.39;100.00;97492.34;5545433;25;20247;-67
2024/05/04 01:03:29;;;;;;;8.73;4.10;;;;;;;5.43;100.00;97497.44;5545414;25;20216;-67
2024/05/04 01:07:51;;;;;;;8.27;4.05;;;;;;;5.42;100.00;97498.31;5364261;26;20665;-67
2024/05/04 01:10:17;;;;;;;8.20;4.27;;;;;;;5.44;100.00;97497.41;5364949;26;20678;-67
2024/05/04 01:12:45;;;;;;;8.23;4.10;;;;;;;5.52;100.00;97500.66;5364781;26;20307;-67
2024/05/04 01:15:11;;;;;;;7.40;4.03;;;;;;;5.52;100.00;97504.97;5364716;26;20228;-67
2024/05/04 01:17:36;;;;;;;9.43;4.23;;;;;;;5.36;100.00;97492.41;5364649;26;20708;-67
2024/05/04 01:20:02;;;;;;;8.53;4.70;;;;;;;5.29;100.00;97506.28;5364746;26;20229;-67
2024/05/04 01:22:31;;;;;;;7.20;3.90;;;;;;;5.34;100.00;97503.63;5364938;26;20274;-66
2024/05/04 01:24:57;;;;;;;8.25;4.05;;;;;;;5.31;100.00;97499.41;5364702;26;20809;-67
2024/05/04 01:27:23;;;;;;;8.67;4.33;;;;;;;5.29;100.00;97506.28;5362789;26;20254;-67
2024/05/04 01:31:46;;;;;;;8.15;4.13;;;;;;;5.14;100.00;97507.47;5494496;25;1323798;-67
2024/05/04 01:34:12;;;;;;;8.10;4.53;;;;;;;5.14;100.00;97512.59;5506738;26;20229;-67
2024/05/04 01:36:38;;;;;;;7.60;4.07;;;;;;;5.27;100.00;97502.06;5508557;25;20315;-66
2024/05/04 01:39:06;;;;;;;7.93;4.50;;;;;;;5.36;100.00;97510.44;5506747;26;20229;-67
2024/05/04 01:41:34;;;;;;;8.43;4.47;;;;;;;5.36;100.00;97504.44;5506588;26;20456;-66
2024/05/04 01:44:00;;;;;;;8.00;4.60;;;;;;;5.29;100.00;97501.13;5506584;26;20224;-67
2024/05/04 01:46:26;;;;;;;14.70;5.00;;;;;;;5.16;100.00;97499.72;5506664;26;20268;-67
2024/05/04 01:48:51;;;;;;;7.90;4.23;;;;;;;5.03;100.00;97511.97;5508297;25;20220;-67
2024/05/04 01:51:17;;;;;;;8.07;4.70;;;;;;;5.16;100.00;97507.44;5506483;26;20578;-67
2024/05/04 01:55:47;;;;;;;7.80;4.30;;;;;;;5.19;100.00;97504.81;5582990;25;20320;-66
2024/05/04 01:58:12;;;;;;;9.67;4.77;;;;;;;5.23;100.00;97501.28;5545807;25;20219;-66
2024/05/04 02:00:38;;;;;;;9.30;4.47;;;;;;;5.10;100.00;97499.84;5545749;25;20209;-66
2024/05/04 02:03:06;;;;;;;8.30;4.50;;;;;;;5.00;100.00;97504.31;5543727;25;20223;-66
2024/05/04 02:05:32;;;;;;;8.20;4.93;;;;;;;4.97;100.00;97506.97;5545488;25;20602;-66
2024/05/04 02:07:58;;;;;;;7.70;4.20;;;;;;;4.86;100.00;97504.59;5545695;25;20220;-67
2024/05/04 02:10:23;;;;;;;9.07;4.83;;;;;;;4.86;100.00;97517.47;5544042;25;20250;-66
2024/05/04 02:12:49;;;;;;;10.47;4.77;;;;;;;4.97;100.00;97510.38;5543764;25;20214;-66
2024/05/04 02:15:14;;;;;;;7.90;4.67;;;;;;;4.98;100.00;97508.66;5543578;25;20218;-66
2024/05/04 02:19:45;;;;;;;8.00;4.55;;;;;;;4.84;100.00;97495.19;5582953;25;20625;-67
2024/05/04 02:22:15;;;;;;;9.00;5.20;;;;;;;4.74;100.00;97492.81;5543892;25;20233;-67
2024/05/04 02:24:40;;;;;;;8.60;4.80;;;;;;;4.69;100.00;97491.22;5545824;25;20556;-68
2024/05/04 02:27:06;;;;;;;11.40;4.50;;;;;;;4.71;100.00;97497.16;5543988;25;20276;-67
2024/05/04 02:29:33;;;;;;;8.30;4.60;;;;;;;4.65;100.00;97492.16;5545904;25;20215;-67
2024/05/04 02:31:58;;;;;;;8.18;4.20;;;;;;;4.56;100.00;97501.72;5545637;25;20218;-67
2024/05/04 02:34:24;;;;;;;9.23;4.40;;;;;;;4.48;100.00;97501.03;5545578;25;20352;-67
2024/05/04 02:36:49;;;;;;;10.33;5.30;;;;;;;4.51;100.00;97500.97;5543690;25;20231;-67
2024/05/04 02:39:16;;;;;;;9.10;4.77;;;;;;;4.60;100.00;97505.94;5543710;25;20693;-67
2024/05/04 02:43:44;;;;;;;8.60;5.20;;;;;;;4.68;100.00;97494.66;5507986;25;21220;-67
2024/05/04 02:46:10;;;;;;;7.80;4.20;;;;;;;4.58;100.00;97492.28;5508476;26;20215;-67
2024/05/04 02:48:35;;;;;;;8.93;4.37;;;;;;;4.52;100.00;97488.97;5476187;26;20237;-67
2024/05/04 02:51:01;;;;;;;9.20;4.73;;;;;;;4.57;100.00;97485.41;5508591;26;20696;-67
2024/05/04 02:53:26;;;;;;;8.20;4.70;;;;;;;4.58;100.00;97489.69;5476099;26;20226;-67
2024/05/04 02:55:52;;;;;;;7.97;4.63;;;;;;;4.53;100.00;97488.94;5508283;26;20218;-67
2024/05/04 02:58:17;;;;;;;7.60;4.47;;;;;;;4.65;100.00;97497.28;5508335;26;20221;-67
2024/05/04 03:00:43;;;;;;;8.03;4.50;;;;;;;4.69;100.00;97491.22;5508158;26;20625;-67
2024/05/04 03:03:08;;;;;;;8.50;4.87;;;;;;;4.70;100.00;97488.59;5475854;26;20254;-67
2024/05/04 03:07:43;;;;;;;8.93;5.18;;;;;;;4.65;100.00;97484.44;5582945;25;20637;-67
2024/05/04 03:10:09;;;;;;;8.40;4.32;;;;;;;4.67;100.00;97480.09;5543862;25;20245;-67
2024/05/04 03:12:34;;;;;;;8.70;4.60;;;;;;;4.73;100.00;97482.53;5543820;25;20259;-67
2024/05/04 03:15:00;;;;;;;8.90;4.80;;;;;;;4.76;100.00;97479.91;5544098;25;20223;-67
2024/05/04 03:17:25;;;;;;;8.83;5.10;;;;;;;4.84;100.00;97482.34;5543864;25;20229;-67
2024/05/04 03:19:51;;;;;;;8.60;4.90;;;;;;;4.94;100.00;97489.84;5543768;25;20635;-67
2024/05/04 03:22:17;;;;;;;9.73;5.80;;;;;;;4.97;100.00;97482.06;5543689;25;20606;-67
2024/05/04 03:24:42;;;;;;;8.40;4.80;;;;;;;5.07;100.00;97487.88;5545462;25;20265;-67
2024/05/04 03:27:09;;;;;;;13.50;5.60;;;;;;;5.08;100.00;97492.16;5543672;25;20220;-67
2024/05/04 03:31:43;;;;;;;8.55;4.90;;;;;;;5.05;100.00;97481.06;5582942;25;20625;-67
2024/05/04 03:34:09;;;;;;;8.27;5.03;;;;;;;5.07;100.00;97484.47;5543861;25;20654;-67
2024/05/04 03:36:41;;;;;;;9.15;5.30;;;;;;;5.17;100.00;97489.38;5545872;25;20809;-66
2024/05/04 03:39:07;;;;;;;9.80;5.38;;;;;;;5.13;100.00;97484.31;5545578;25;20625;-67
2024/05/04 03:41:33;;;;;;;11.45;5.45;;;;;;;5.18;100.00;97493.66;5543956;25;20253;-66
2024/05/04 03:44:04;;;;;;;9.63;5.60;;;;;;;5.28;100.00;97491.72;5545759;25;20229;-67
2024/05/04 03:46:30;;;;;;;8.40;5.15;;;;;;;5.32;100.00;97490.78;5543692;25;20310;-66
2024/05/04 03:48:55;;;;;;;8.00;4.90;;;;;;;5.31;100.00;97488.22;5543642;25;20239;-66
2024/05/04 03:51:21;;;;;;;9.03;5.10;;;;;;;5.35;100.00;97487.31;5543531;25;20454;-67
2024/05/04 03:55:41;;;;;;;9.65;5.30;;;;;;;5.33;100.00;97496.75;5582805;25;20312;-67
2024/05/04 03:58:07;;;;;;;8.33;5.10;;;;;;;5.30;100.00;97502.84;5544089;25;20276;-66
2024/05/04 04:00:33;;;;;;;8.70;5.00;;;;;;;5.41;100.00;97501.78;5544091;25;20512;-66
2024/05/04 04:02:58;;;;;;;8.30;4.93;;;;;;;5.37;100.00;97504.41;5545703;25;20318;-66
2024/05/04 04:05:24;;;;;;;9.73;5.70;;;;;;;5.44;100.00;97504.25;5543840;25;20249;-66
2024/05/04 04:07:49;;;;;;;9.13;4.73;;;;;;;5.43;100.00;97500.84;5545602;25;20243;-67
2024/05/04 04:10:15;;;;;;;8.93;5.17;;;;;;;5.46;100.00;97502.53;5545609;25;20215;-67
2024/05/04 04:12:40;;;;;;;8.20;4.57;;;;;;;5.44;100.00;97502.56;5545520;25;20686;-66
2024/05/04 04:15:06;;;;;;;8.87;5.20;;;;;;;5.46;100.00;97511.09;5545698;25;20260;-66
2024/05/04 04:19:40;;;;;;;9.45;5.05;;;;;;;5.48;100.00;97509.31;5582939;25;20525;-66
2024/05/04 04:22:05;;;;;;;9.10;5.17;;;;;;;5.51;100.00;97511.84;5544205;25;20230;-67
2024/05/04 04:24:31;;;;;;;8.97;5.57;;;;;;;5.46;100.00;97508.53;5545624;25;20323;-67
2024/05/04 04:26:56;;;;;;;10.23;4.90;;;;;;;5.38;100.00;97508.69;5543817;25;20222;-67
2024/05/04 04:29:22;;;;;;;10.13;5.67;;;;;;;5.34;100.00;97507.03;5543913;25;20222;-67
2024/05/04 04:31:47;;;;;;;9.07;5.50;;;;;;;5.49;100.00;97515.31;5545679;25;20692;-67
2024/05/04 04:34:13;;;;;;;8.63;5.20;;;;;;;5.49;100.00;97512.75;5545550;25;20217;-67
2024/05/04 04:36:38;;;;;;;10.10;6.07;;;;;;;5.51;100.00;97510.97;5543843;25;20215;-66
2024/05/04 04:39:07;;;;;;;9.90;5.50;;;;;;;5.65;100.00;97513.25;5543592;25;20287;-67
2024/05/04 04:43:39;;;;;;;10.18;5.90;;;;;;;5.84;100.00;97516.25;5583123;25;20628;-67
2024/05/04 04:46:06;;;;;;;10.20;6.00;;;;;;;5.90;100.00;97516.13;5545609;25;20221;-67
2024/05/04 04:48:32;;;;;;;9.10;5.03;;;;;;;5.88;100.00;97511.00;5543863;25;20220;-66
2024/05/04 04:50:57;;;;;;;9.60;5.33;;;;;;;5.90;100.00;97513.53;5545506;25;20727;-67
2024/05/04 04:53:23;;;;;;;9.47;5.47;;;;;;;5.95;100.00;97507.44;5543891;25;20254;-67
2024/05/04 04:55:48;;;;;;;10.43;5.97;;;;;;;5.82;100.00;97508.56;5543770;25;20253;-67
2024/05/04 04:58:16;;;;;;;9.27;5.43;;;;;;;5.87;100.00;97509.28;5545533;25;20262;-67
2024/05/04 05:00:43;;;;;;;10.82;5.88;;;;;;;5.92;100.00;97517.78;5543605;25;20230;-67
2024/05/04 05:03:08;;;;;;;8.63;5.10;;;;;;;5.93;100.00;97514.31;5545461;25;20218;-67
2024/05/04 05:07:38;;;;;;;12.02;6.03;;;;;;;6.03;100.00;97514.97;5583167;25;20353;-67
2024/05/04 05:10:04;;;;;;;11.77;5.23;;;;;;;6.01;100.00;97510.75;5545800;25;20817;-67
2024/05/04 05:12:30;;;;;;;12.17;5.90;;;;;;;6.06;100.00;97508.91;5545704;25;20215;-67
2024/05/04 05:14:55;;;;;;;10.63;5.60;;;;;;;6.06;100.00;97499.44;5543826;25;20440;-67
2024/05/04 05:17:21;;;;;;;9.43;5.00;;;;;;;6.10;100.00;97505.38;5543777;25;20244;-67
2024/05/04 05:19:46;;;;;;;10.73;5.33;;;;;;;5.98;100.00;97503.91;5545514;25;20682;-67
2024/05/04 05:22:12;;;;;;;9.60;5.30;;;;;;;6.02;100.00;97507.28;5545704;25;20256;-67
2024/05/04 05:24:37;;;;;;;8.83;5.10;;;;;;;6.15;100.00;97503.53;5543829;25;20229;-67
2024/05/04 05:27:03;;;;;;;10.50;5.70;;;;;;;5.99;100.00;97508.19;5543565;25;20220;-67
2024/05/04 05:31:37;;;;;;;9.40;5.30;;;;;;;6.01;100.00;97505.59;5582936;25;20723;-67
2024/05/04 05:34:06;;;;;;;9.70;5.10;;;;;;;6.16;100.00;97502.63;5545658;25;20224;-67
2024/05/04 05:36:33;;;;;;;10.00;5.50;;;;;;;6.27;100.00;97492.88;5545779;25;20658;-67
2024/05/04 05:38:58;;;;;;;8.57;5.00;;;;;;;6.16;100.00;97489.75;5545863;25;20231;-67
2024/05/04 05:41:24;;;;;;;9.83;5.83;;;;;;;6.34;100.00;97498.75;5543678;25;20314;-66
2024/05/04 05:43:49;;;;;;;10.57;6.03;;;;;;;6.44;100.00;97501.94;5543837;25;20226;-67
2024/05/04 05:46:15;;;;;;;9.33;5.80;;;;;;;6.52;100.00;97497.44;5543836;25;20276;-67
2024/05/04 05:48:41;;;;;;;12.13;6.57;;;;;;;6.64;100.00;97501.41;5543798;25;20233;-67
2024/05/04 05:51:06;;;;;;;11.80;6.50;;;;;;;6.73;100.00;97503.75;5543627;25;20260;-67
2024/05/04 05:55:36;;;;;;;11.18;6.40;;;;;;;6.74;100.00;97489.97;5582964;25;20371;-67
2024/05/04 05:58:06;;;;;;;10.33;6.33;;;;;;;6.81;100.00;97495.81;5545870;25;20209;-67
2024/05/04 06:00:32;;;;;;;10.60;6.38;;;;;;;6.92;100.00;97498.94;5545618;25;20729;-67
2024/05/04 06:02:57;;;;;;;12.47;6.57;;;;;;;7.00;100.00;97488.38;5545699;25;20224;-67
2024/05/04 06:05:23;;;;;;;11.63;7.10;;;;;;;7.11;100.00;97502.69;5545562;25;20219;-67
2024/05/04 06:07:48;;;;;;;9.50;5.93;;;;;;;6.96;100.00;97486.78;5545465;25;20226;-67
2024/05/04 06:10:14;;;;;;;10.30;6.20;;;;;;;6.97;100.00;97491.03;5512930;25;20687;-67
2024/05/04 06:12:40;;;;;;;9.23;6.00;;;;;;;7.11;100.00;97500.13;5545435;25;20219;-67
2024/05/04 06:15:05;;;;;;;10.10;5.70;;;;;;;7.09;100.00;97499.31;5545607;25;20216;-67
2024/05/04 06:19:36;;;;;;;10.02;6.00;;;;;;;7.23;100.00;97510.97;5582917;25;20733;-66
2024/05/04 06:22:02;;;;;;;10.10;5.70;;;;;;;7.29;100.00;97506.50;5545840;25;20225;-66
2024/05/04 06:24:27;;;;;;;10.90;6.00;;;;;;;7.36;100.00;97514.91;5545750;25;20548;-66
2024/05/04 06:26:53;;;;;;;9.70;5.83;;;;;;;7.43;100.00;97513.00;5543918;25;20669;-66
2024/05/04 06:29:19;;;;;;;11.03;5.97;;;;;;;7.51;100.00;97503.25;5543847;25;20224;-66
2024/05/04 06:31:45;;;;;;;10.02;6.13;;;;;;;7.62;100.00;97508.97;5545823;25;20209;-66
2024/05/04 06:34:11;;;;;;;11.00;6.30;;;;;;;7.78;100.00;97508.47;5543969;25;20239;-66
2024/05/04 06:36:40;;;;;;;10.55;6.40;;;;;;;7.94;100.00;97507.09;5545476;25;20587;-66
2024/05/04 06:39:06;;;;;;;10.50;6.45;;;;;;;8.04;100.00;97500.75;5545360;25;20251;-66
2024/05/04 06:43:35;;;;;;;12.30;6.65;;;;;;;8.27;100.00;97501.72;5621179;25;20529;-66
2024/05/04 06:46:00;;;;;;;11.53;6.90;;;;;;;8.41;100.00;97499.53;5583284;25;20315;-66
2024/05/04 06:48:26;;;;;;;14.90;7.30;;;;;;;8.53;100.00;97500.03;5583203;25;20307;-65
2024/05/04 06:50:51;;;;;;;11.20;6.90;;;;;;;8.38;100.00;97484.09;5550141;25;20216;-66
2024/05/04 06:53:17;;;;;;;10.93;7.30;;;;;;;8.36;100.00;97480.72;5583513;25;20208;-66
2024/05/04 06:55:42;;;;;;;11.43;7.27;;;;;;;8.40;100.00;97473.72;5583075;25;20743;-66
2024/05/04 06:58:08;;;;;;;11.37;6.87;;;;;;;8.39;100.00;97465.09;5583023;25;20215;-65
2024/05/04 07:00:33;;;;;;;12.10;7.00;;;;;;;8.58;100.00;97467.91;5549876;25;20617;-66
2024/05/04 07:02:59;;;;;;;10.63;6.77;;;;;;;8.69;100.00;97462.38;5549880;25;20212;-66
2024/05/04 07:07:36;;;;;;;11.32;7.03;;;;;;;8.90;100.00;97454.75;5545192;25;20570;-66
2024/05/04 07:10:02;;;;;;;10.63;6.45;;;;;;;8.83;100.00;97452.38;5476228;26;20257;-66
2024/05/04 07:12:28;;;;;;;10.30;6.60;;;;;;;8.87;100.00;97442.75;5508569;26;20642;-66
2024/05/04 07:14:53;;;;;;;10.20;5.87;;;;;;;8.88;100.00;97446.16;5476199;26;20448;-66
2024/05/04 07:17:19;;;;;;;10.40;6.80;;;;;;;8.59;100.00;97435.97;5508504;26;20214;-66
2024/05/04 07:19:44;;;;;;;10.00;5.77;;;;;;;8.59;100.00;97435.97;5476222;26;20219;-66
2024/05/04 07:22:10;;;;;;;10.00;6.20;;;;;;;8.70;100.00;97430.41;5475937;26;20245;-66
2024/05/04 07:24:35;;;;;;;10.80;6.33;;;;;;;8.96;100.00;97415.66;5508240;26;20256;-66
2024/05/04 07:27:01;;;;;;;10.13;5.70;;;;;;;9.44;100.00;97419.03;5475972;26;20582;-66
2024/05/04 07:31:33;;;;;;;10.60;6.18;;;;;;;9.76;100.00;97399.59;5582829;25;20368;-66
2024/05/04 07:33:59;;;;;;;8.50;5.40;;;;;;;9.85;100.00;97399.22;5545678;25;20318;-66
2024/05/04 07:36:24;;;;;;;9.60;5.70;;;;;;;10.05;100.00;97389.78;5512802;25;20690;-66
2024/05/04 07:38:52;;;;;;;11.00;6.23;;;;;;;10.30;100.00;97395.63;5512995;25;20653;-66
2024/05/04 07:41:18;;;;;;;9.00;5.38;;;;;;;10.42;100.00;97388.22;5512924;25;20763;-66
2024/05/04 07:43:43;;;;;;;10.70;5.67;;;;;;;10.57;100.00;97388.41;5512813;25;20226;-66
2024/05/04 07:46:09;;;;;;;9.70;5.20;;;;;;;10.64;100.00;97372.53;5512773;25;20245;-66
2024/05/04 07:48:34;;;;;;;9.17;5.23;;;;;;;10.81;100.00;97374.41;5545533;25;20213;-66
2024/05/04 07:51:00;;;;;;;8.90;5.37;;;;;;;11.04;100.00;97371.59;5512668;25;20223;-66
2024/05/04 07:55:32;;;;;;;8.43;5.00;;;;;;;11.36;100.00;97361.44;5583038;25;20396;-66
2024/05/04 07:57:58;;;;;;;10.87;4.97;;;;;;;11.28;100.00;97348.81;5543915;25;20231;-66
2024/05/04 08:00:24;;;;;;;9.00;4.07;;;;;;;11.60;100.00;97359.41;5545559;25;20692;-66
2024/05/04 08:02:51;;;;;;;8.18;4.30;;;;;;;11.92;100.00;97345.78;5545843;25;20611;-65
2024/05/04 08:05:18;;;;;;;7.15;4.15;;;;;;;11.79;100.00;97343.75;5545686;25;20255;-66
2024/05/04 08:07:45;;;;;;;7.97;4.60;;;;;;;12.03;100.00;97339.09;5543918;25;20645;-65
2024/05/04 08:10:11;;;;;;;7.80;5.00;;;;;;;12.32;100.00;97325.50;5545426;25;20219;-66
2024/05/04 08:12:38;;;;;;;8.02;4.30;;;;;;;12.49;100.00;97330.66;5545428;25;20228;-66
2024/05/04 08:15:05;;;;;;;7.30;3.90;;;;;;;13.04;100.00;97325.09;5512786;25;20763;-66
2024/05/04 08:19:35;;;;;;;12.13;4.25;;;;;;;13.17;100.00;97309.59;5582787;25;20792;-66
2024/05/04 08:22:02;;;;;;;7.63;4.47;;;;;;;13.15;100.00;97306.25;5545650;25;20588;-66
2024/05/04 08:24:30;;;;;;;7.30;4.20;;;;;;;13.27;100.00;97309.09;5512830;25;20221;-66
2024/05/04 08:26:58;;;;;;;9.95;4.47;;;;;;;13.39;100.00;97301.44;5512670;25;20224;-65
2024/05/04 08:29:29;;;;;;;8.30;3.60;;;;;;;13.51;100.00;97309.47;5545525;25;20214;-66
2024/05/04 08:31:56;;;;;;;7.28;4.00;;;;;;;13.55;100.00;97304.00;5512901;25;20213;-66
2024/05/04 08:34:23;;;;;;;8.13;3.90;;;;;;;14.13;100.00;97301.50;5512665;25;20226;-67
2024/05/04 08:36:49;;;;;;;7.30;4.10;;;;;;;14.18;100.00;97302.06;5512631;25;20226;-67
2024/05/04 08:39:16;;;;;;;8.20;4.53;;;;;;;14.44;100.00;97303.09;5545525;25;20217;-66
2024/05/04 08:43:29;;;;;;;8.67;4.77;;;;;;;13.89;100.00;97312.47;5463814;25;2118216;-65
2024/05/04 08:45:57;;;;;;;8.63;4.40;;;;;;;13.61;100.00;97308.03;5506808;26;20218;-66
2024/05/04 08:48:24;;;;;;;8.05;4.38;;;;;;;13.75;100.00;97309.81;5476825;26;20223;-67
2024/05/04 08:50:52;;;;;;;9.77;5.10;;;;;;;13.25;100.00;97304.78;5508724;25;20278;-67
2024/05/04 08:53:19;;;;;;;7.32;4.03;;;;;;;13.55;100.00;97305.75;5508714;25;20817;-67
2024/05/04 08:55:46;;;;;;;8.52;4.28;;;;;;;13.56;100.00;97302.22;5506674;26;20274;-68
2024/05/04 08:58:19;;;;;;;7.57;4.40;;;;;;;13.90;100.00;97313.31;5506576;26;20226;-67
2024/05/04 09:00:55;;;;;;;7.43;4.35;;;;;;;14.06;100.00;97298.44;5477442;26;20219;-67
2024/05/04 09:03:26;;;;;;;7.40;4.38;;;;;;;14.13;100.00;97304.13;5506574;26;20230;-66
2024/05/04 09:07:29;;;;;;;10.05;5.93;;;;;;;14.15;100.00;97303.09;5621248;25;20309;-67
2024/05/04 09:10:01;;;;;;;7.93;4.33;;;;;;;14.51;100.00;97282.66;5550286;25;20316;-66
2024/05/04 09:12:31;;;;;;;9.00;5.18;;;;;;;14.94;100.00;97287.84;5583196;25;20309;-67
2024/05/04 09:15:00;;;;;;;8.68;4.72;;;;;;;14.75;100.00;97283.78;5583322;25;20226;-67
2024/05/04 09:17:29;;;;;;;9.40;5.07;;;;;;;14.47;100.00;97276.78;5550098;25;20670;-66
2024/05/04 09:19:54;;;;;;;7.60;4.60;;;;;;;14.65;100.00;97274.84;5583494;25;20216;-66
2024/05/04 09:22:20;;;;;;;8.40;4.90;;;;;;;14.44;100.00;97281.34;5549895;25;20591;-67
2024/05/04 09:24:46;;;;;;;8.50;4.63;;;;;;;14.82;100.00;97281.59;5549792;25;20228;-66
2024/05/04 09:27:12;;;;;;;7.88;4.45;;;;;;;14.99;100.00;97270.09;5582966;25;20787;-67
2024/05/04 09:31:32;;;;;;;8.32;4.45;;;;;;;15.07;100.00;97273.06;5582441;25;20649;-68
2024/05/04 09:34:00;;;;;;;7.38;4.30;;;;;;;15.22;100.00;97265.97;5543872;25;20765;-67
2024/05/04 09:36:28;;;;;;;7.43;4.35;;;;;;;15.31;100.00;97269.78;5544019;25;20687;-67
2024/05/04 09:38:59;;;;;;;7.80;4.32;;;;;;;14.93;100.00;97267.88;5544061;25;20220;-67
2024/05/04 09:41:38;;;;;;;6.78;3.65;;;;;;;15.08;100.00;97266.91;5543852;25;20232;-67
2024/05/04 09:44:05;;;;;;;8.10;4.40;;;;;;;15.27;100.00;97265.69;5543744;25;20251;-67
2024/05/04 09:46:33;;;;;;;8.30;4.75;;;;;;;15.03;100.00;97266.34;5545561;25;20501;-67
2024/05/04 09:49:26;;;;;;;8.52;4.72;;;;;;;15.16;100.00;97263.78;5543707;25;20233;-67
2024/05/04 09:51:55;;;;;;;7.33;4.20;;;;;;;15.71;100.00;97261.91;5545658;25;20552;-66
2024/05/04 09:55:32;;;;;;;11.15;4.78;;;;;;;16.00;100.00;97264.38;5544332;25;21117;-67
2024/05/04 09:58:08;;;;;;;7.10;4.37;;;;;;;16.21;100.00;97262.06;5508627;26;20701;-68
2024/05/04 10:00:45;;;;;;;8.50;4.47;;;;;;;16.21;100.00;97262.06;5508616;26;20479;-67
2024/05/04 10:03:15;;;;;;;7.87;4.53;;;;;;;15.99;100.00;97262.69;5508631;26;20438;-67
2024/05/04 10:05:45;;;;;;;8.80;5.10;;;;;;;15.81;100.00;97254.31;5475972;26;20499;-67
2024/05/04 10:08:13;;;;;;;8.00;4.20;;;;;;;16.18;100.00;97249.19;5475919;26;20560;-68
2024/05/04 10:10:40;;;;;;;8.10;4.57;;;;;;;16.24;100.00;97246.13;5508362;26;20432;-68
2024/05/04 10:13:19;;;;;;;8.40;4.17;;;;;;;16.59;100.00;97242.81;5475766;26;20226;-66
2024/05/04 10:15:45;;;;;;;7.20;3.93;;;;;;;16.45;100.00;97244.63;5475959;26;20526;-67
2024/05/04 10:19:24;;;;;;;7.30;3.93;;;;;;;16.83;100.00;97241.13;5583010;25;20639;-67
2024/05/04 10:21:51;;;;;;;7.23;4.30;;;;;;;16.60;100.00;97241.88;5543829;25;20488;-66
2024/05/04 10:24:31;;;;;;;10.00;4.63;;;;;;;16.42;100.00;97241.41;5543877;25;20496;-67
2024/05/04 10:26:58;;;;;;;7.43;4.17;;;;;;;16.40;100.00;97243.28;5543440;25;20446;-66
2024/05/04 10:29:24;;;;;;;8.60;4.10;;;;;;;15.91;100.00;97244.88;5543745;25;21045;-66
2024/05/04 10:31:50;;;;;;;8.20;4.37;;;;;;;15.93;100.00;97243.00;5543721;25;20446;-67
2024/05/04 10:34:16;;;;;;;9.30;3.70;;;;;;;16.11;100.00;97240.91;5543644;25;20308;-67
2024/05/04 10:36:52;;;;;;;8.13;4.17;;;;;;;15.65;100.00;97229.13;5545533;25;20438;-69
2024/05/04 10:39:18;;;;;;;7.80;4.50;;;;;;;15.84;100.00;97235.78;5512793;25;20964;-67
2024/05/04 10:44:01;;;;;;;8.23;3.80;;;;;;;15.88;100.00;97235.47;5582922;25;20615;-67
2024/05/04 10:46:28;;;;;;;7.90;3.73;;;;;;;16.13;100.00;97239.00;5545962;25;20496;-67
2024/05/04 10:48:55;;;;;;;6.50;3.53;;;;;;;16.74;100.00;97223.38;5545777;25;20446;-67
2024/05/04 10:51:27;;;;;;;6.75;3.78;;;;;;;17.02;100.00;97213.53;5543791;25;20446;-67
2024/05/04 10:53:55;;;;;;;7.10;3.60;;;;;;;17.16;100.00;97220.41;5543754;25;20263;-66
2024/05/04 10:56:21;;;;;;;8.40;3.77;;;;;;;16.96;100.00;97216.63;5543632;25;20562;-67
2024/05/04 10:58:48;;;;;;;8.00;3.40;;;;;;;16.87;100.00;97218.13;5545499;25;20436;-67
2024/05/04 11:01:21;;;;;;;7.40;4.20;;;;;;;16.63;100.00;97223.31;5545384;25;20562;-67
2024/05/04 11:03:50;;;;;;;6.83;4.00;;;;;;;16.98;100.00;97212.09;5513416;25;20906;-68
2024/05/04 11:07:25;;;;;;;6.93;3.70;;;;;;;16.67;100.00;97211.66;5545256;25;20534;-68
2024/05/04 11:09:55;;;;;;;6.90;4.13;;;;;;;17.13;100.00;97205.72;5476120;26;20452;-68
2024/05/04 11:12:22;;;;;;;7.00;3.67;;;;;;;17.12;100.00;97201.44;5508594;26;20440;-68
2024/05/04 11:15:00;;;;;;;6.40;3.60;;;;;;;16.89;100.00;97195.25;5476174;26;20500;-67
2024/05/04 11:17:27;;;;;;;8.50;3.60;;;;;;;16.74;100.00;97193.72;5508494;26;20449;-67
2024/05/04 11:20:22;;;;;;;7.70;3.20;;;;;;;16.39;100.00;97199.66;5508352;26;20786;-68
2024/05/04 11:22:51;;;;;;;7.30;3.80;;;;;;;16.18;100.00;97204.66;5508313;26;20500;-67
2024/05/04 11:25:20;;;;;;;7.30;3.73;;;;;;;16.33;100.00;97187.00;5475860;26;20496;-67
2024/05/04 11:27:47;;;;;;;7.10;3.70;;;;;;;16.80;100.00;97195.88;5475995;26;20948;-67
2024/05/04 11:31:23;;;;;;;7.20;4.00;;;;;;;16.59;88.08;97198.25;5545311;25;20711;-67
2024/05/04 11:33:51;;;;;;;6.90;3.50;;;;;;;17.11;91.92;97180.56;5446436;26;20509;-67
2024/05/04 11:36:18;;;;;;;8.40;3.60;;;;;;;17.62;98.63;97182.84;5446221;26;20444;-67
2024/05/04 11:38:44;;;;;;;6.57;3.60;;;;;;;17.79;93.42;97178.91;5446345;26;20446;-67
2024/05/04 11:41:11;;;;;;;7.57;3.20;;;;;;;17.54;100.00;97180.81;5476139;26;20453;-67
2024/05/04 11:43:37;;;;;;;7.27;3.00;;;;;;;17.57;100.00;97174.47;5476010;26;20827;-68
2024/05/04 11:46:05;;;;;;;6.13;3.00;;;;;;;17.12;88.95;97177.81;5476205;26;20963;-67
2024/05/04 11:48:31;;;;;;;6.57;3.40;;;;;;;16.82;96.10;97176.44;5508611;26;20217;-67
2024/05/04 11:50:57;;;;;;;6.53;3.70;;;;;;;16.76;96.05;97171.66;5508250;26;20425;-67
2024/05/04 11:55:13;;;;;;;6.77;3.20;;;;;;;17.08;100.00;97174.59;5545402;25;20977;-67
2024/05/04 11:57:39;;;;;;;7.27;3.33;;;;;;;17.29;100.00;97170.47;5506775;26;20452;-68
2024/05/04 12:00:06;;;;;;;6.70;3.17;;;;;;;17.86;92.67;97168.81;5508655;25;20661;-67
2024/05/04 12:02:32;;;;;;;6.30;3.30;;;;;;;18.41;90.68;97169.75;5506799;26;20269;-67
2024/05/04 12:04:59;;;;;;;6.40;3.70;;;;;;;17.68;94.28;97171.03;5506681;26;20856;-67
2024/05/04 12:07:26;;;;;;;7.50;3.70;;;;;;;16.75;82.03;97167.34;5506627;26;21016;-67
2024/05/04 12:10:18;;;;;;;6.50;3.63;;;;;;;16.77;85.45;97162.88;5506612;26;20555;-67
2024/05/04 12:12:45;;;;;;;9.07;4.27;;;;;;;17.24;79.31;97158.50;5506391;26;20465;-66
2024/05/04 12:15:13;;;;;;;7.07;3.60;;;;;;;17.68;86.36;97161.34;5506523;26;20453;-67
2024/05/04 12:19:13;;;;;;;6.50;3.33;;;;;;;18.10;94.82;97151.16;5545147;25;21022;-67
2024/05/04 12:21:41;;;;;;;6.00;3.20;;;;;;;17.84;87.99;97156.63;5476232;26;20509;-67
2024/05/04 12:24:07;;;;;;;7.00;3.60;;;;;;;17.98;74.85;97160.81;5476066;26;20993;-67
2024/05/04 12:26:34;;;;;;;8.63;3.40;;;;;;;18.18;82.50;97150.53;5476250;26;20954;-67